sensor_id;sensor_type;location;lat;lon;timestamp;temperature;humidity
63897;DHT22;50063;52.084;5.414;2022-09-02T00:01:53;17.70;78.00
63897;DHT22;50063;52.084;5.414;2022-09-02T00:04:21;17.70;78.30
63897;DHT22;50063;52.084;5.414;2022-09-02T00:06:49;17.60;78.30
63897;DHT22;50063;52.084;5.414;2022-09-02T00:09:17;17.60;78.70
63897;DHT22;50063;52.084;5.414;2022-09-02T00:11:45;17.60;78.20
63897;DHT22;50063;52.084;5.414;2022-09-02T00:14:14;17.50;78.60
63897;DHT22;50063;52.084;5.414;2022-09-02T00:16:41;17.50;78.80
63897;DHT22;50063;52.084;5.414;2022-09-02T00:19:10;17.40;78.90
63897;DHT22;50063;52.084;5.414;2022-09-02T00:21:37;17.40;79.40
63897;DHT22;50063;52.084;5.414;2022-09-02T00:24:04;17.30;79.10
63897;DHT22;50063;52.084;5.414;2022-09-02T00:26:30;17.30;78.80
63897;DHT22;50063;52.084;5.414;2022-09-02T00:28:57;17.20;79.10
63897;DHT22;50063;52.084;5.414;2022-09-02T00:31:25;17.20;79.50
63897;DHT22;50063;52.084;5.414;2022-09-02T00:33:53;17.10;79.20
63897;DHT22;50063;52.084;5.414;2022-09-02T00:36:20;17.10;79.20
63897;DHT22;50063;52.084;5.414;2022-09-02T00:38:46;17.10;79.70
63897;DHT22;50063;52.084;5.414;2022-09-02T00:41:13;17.10;79.70
63897;DHT22;50063;52.084;5.414;2022-09-02T00:43:47;17.00;80.00
63897;DHT22;50063;52.084;5.414;2022-09-02T00:46:15;17.00;80.00
63897;DHT22;50063;52.084;5.414;2022-09-02T00:48:45;17.00;80.50
63897;DHT22;50063;52.084;5.414;2022-09-02T00:51:13;17.00;80.70
63897;DHT22;50063;52.084;5.414;2022-09-02T00:53:41;17.00;80.60
63897;DHT22;50063;52.084;5.414;2022-09-02T00:56:10;16.90;80.40
63897;DHT22;50063;52.084;5.414;2022-09-02T00:58:39;16.90;80.90
63897;DHT22;50063;52.084;5.414;2022-09-02T01:01:08;16.90;81.70
63897;DHT22;50063;52.084;5.414;2022-09-02T01:03:37;16.80;80.40
63897;DHT22;50063;52.084;5.414;2022-09-02T01:06:04;16.80;80.40
63897;DHT22;50063;52.084;5.414;2022-09-02T01:08:32;16.80;80.60
63897;DHT22;50063;52.084;5.414;2022-09-02T01:11:00;16.80;80.60
63897;DHT22;50063;52.084;5.414;2022-09-02T01:13:34;16.90;81.30
63897;DHT22;50063;52.084;5.414;2022-09-02T01:16:12;16.90;81.60
63897;DHT22;50063;52.084;5.414;2022-09-02T01:18:42;16.80;81.30
63897;DHT22;50063;52.084;5.414;2022-09-02T01:21:10;16.90;81.10
63897;DHT22;50063;52.084;5.414;2022-09-02T01:23:37;16.80;81.20
63897;DHT22;50063;52.084;5.414;2022-09-02T01:26:05;16.80;82.00
63897;DHT22;50063;52.084;5.414;2022-09-02T01:28:33;16.80;81.70
63897;DHT22;50063;52.084;5.414;2022-09-02T01:31:00;16.80;81.30
63897;DHT22;50063;52.084;5.414;2022-09-02T01:33:27;16.80;81.40
63897;DHT22;50063;52.084;5.414;2022-09-02T01:35:56;16.80;81.30
63897;DHT22;50063;52.084;5.414;2022-09-02T01:38:23;16.80;81.60
63897;DHT22;50063;52.084;5.414;2022-09-02T01:40:49;16.70;81.30
63897;DHT22;50063;52.084;5.414;2022-09-02T01:43:20;16.70;81.50
63897;DHT22;50063;52.084;5.414;2022-09-02T01:45:48;16.70;81.40
63897;DHT22;50063;52.084;5.414;2022-09-02T01:48:15;16.80;81.80
63897;DHT22;50063;52.084;5.414;2022-09-02T01:50:53;16.70;81.80
63897;DHT22;50063;52.084;5.414;2022-09-02T01:53:20;16.70;81.60
63897;DHT22;50063;52.084;5.414;2022-09-02T01:55:47;16.70;81.80
63897;DHT22;50063;52.084;5.414;2022-09-02T01:58:13;16.70;81.60
63897;DHT22;50063;52.084;5.414;2022-09-02T02:00:40;16.60;81.60
63897;DHT22;50063;52.084;5.414;2022-09-02T02:03:06;16.60;81.80
63897;DHT22;50063;52.084;5.414;2022-09-02T02:05:33;16.70;81.90
63897;DHT22;50063;52.084;5.414;2022-09-02T02:08:00;16.60;82.00
63897;DHT22;50063;52.084;5.414;2022-09-02T02:10:27;16.60;82.00
63897;DHT22;50063;52.084;5.414;2022-09-02T02:12:53;16.60;81.90
63897;DHT22;50063;52.084;5.414;2022-09-02T02:15:21;16.60;81.90
63897;DHT22;50063;52.084;5.414;2022-09-02T02:17:47;16.60;82.20
63897;DHT22;50063;52.084;5.414;2022-09-02T02:20:15;16.60;82.50
63897;DHT22;50063;52.084;5.414;2022-09-02T02:22:42;16.60;82.30
63897;DHT22;50063;52.084;5.414;2022-09-02T02:25:09;16.50;82.20
63897;DHT22;50063;52.084;5.414;2022-09-02T02:27:36;16.60;83.00
63897;DHT22;50063;52.084;5.414;2022-09-02T02:30:04;16.60;82.50
63897;DHT22;50063;52.084;5.414;2022-09-02T02:32:31;16.50;82.80
63897;DHT22;50063;52.084;5.414;2022-09-02T02:34:57;16.50;82.80
63897;DHT22;50063;52.084;5.414;2022-09-02T02:37:24;16.50;82.80
63897;DHT22;50063;52.084;5.414;2022-09-02T02:39:51;16.50;82.70
63897;DHT22;50063;52.084;5.414;2022-09-02T02:42:18;16.50;83.20
63897;DHT22;50063;52.084;5.414;2022-09-02T02:44:45;16.40;82.50
63897;DHT22;50063;52.084;5.414;2022-09-02T02:47:12;16.40;83.40
63897;DHT22;50063;52.084;5.414;2022-09-02T02:49:40;16.40;83.20
63897;DHT22;50063;52.084;5.414;2022-09-02T02:52:07;16.50;83.50
63897;DHT22;50063;52.084;5.414;2022-09-02T02:54:34;16.40;83.60
63897;DHT22;50063;52.084;5.414;2022-09-02T02:57:01;16.40;83.60
63897;DHT22;50063;52.084;5.414;2022-09-02T02:59:28;16.40;83.60
63897;DHT22;50063;52.084;5.414;2022-09-02T03:01:55;16.40;83.60
63897;DHT22;50063;52.084;5.414;2022-09-02T03:04:22;16.40;84.00
63897;DHT22;50063;52.084;5.414;2022-09-02T03:06:49;16.40;84.10
63897;DHT22;50063;52.084;5.414;2022-09-02T03:09:16;16.40;84.50
63897;DHT22;50063;52.084;5.414;2022-09-02T03:11:46;16.40;83.60
63897;DHT22;50063;52.084;5.414;2022-09-02T03:14:13;16.40;83.70
63897;DHT22;50063;52.084;5.414;2022-09-02T03:16:40;16.40;84.10
63897;DHT22;50063;52.084;5.414;2022-09-02T03:19:06;16.50;84.50
63897;DHT22;50063;52.084;5.414;2022-09-02T03:21:33;16.40;84.00
63897;DHT22;50063;52.084;5.414;2022-09-02T03:24:05;16.40;84.80
63897;DHT22;50063;52.084;5.414;2022-09-02T03:26:31;16.40;84.40
63897;DHT22;50063;52.084;5.414;2022-09-02T03:28:58;16.40;84.70
63897;DHT22;50063;52.084;5.414;2022-09-02T03:31:25;16.30;84.40
63897;DHT22;50063;52.084;5.414;2022-09-02T03:33:52;16.30;84.40
63897;DHT22;50063;52.084;5.414;2022-09-02T03:36:20;16.30;84.30
63897;DHT22;50063;52.084;5.414;2022-09-02T03:38:47;16.30;84.30
63897;DHT22;50063;52.084;5.414;2022-09-02T03:41:14;16.20;84.60
63897;DHT22;50063;52.084;5.414;2022-09-02T03:43:40;16.20;84.30
63897;DHT22;50063;52.084;5.414;2022-09-02T03:46:07;16.20;84.70
63897;DHT22;50063;52.084;5.414;2022-09-02T03:48:35;16.20;84.30
63897;DHT22;50063;52.084;5.414;2022-09-02T03:51:02;16.20;85.00
63897;DHT22;50063;52.084;5.414;2022-09-02T03:53:29;16.20;84.60
63897;DHT22;50063;52.084;5.414;2022-09-02T03:55:56;16.20;84.60
63897;DHT22;50063;52.084;5.414;2022-09-02T03:58:23;16.10;84.60
63897;DHT22;50063;52.084;5.414;2022-09-02T04:00:50;16.10;85.00
63897;DHT22;50063;52.084;5.414;2022-09-02T04:03:17;16.10;84.50
63897;DHT22;50063;52.084;5.414;2022-09-02T04:05:46;16.10;84.90
63897;DHT22;50063;52.084;5.414;2022-09-02T04:08:13;16.10;85.20
63897;DHT22;50063;52.084;5.414;2022-09-02T04:10:40;16.10;85.30
63897;DHT22;50063;52.084;5.414;2022-09-02T04:13:06;16.10;85.10
63897;DHT22;50063;52.084;5.414;2022-09-02T04:15:33;16.00;85.50
63897;DHT22;50063;52.084;5.414;2022-09-02T04:18:00;16.10;85.20
63897;DHT22;50063;52.084;5.414;2022-09-02T04:20:26;16.00;85.60
63897;DHT22;50063;52.084;5.414;2022-09-02T04:22:53;16.00;85.80
63897;DHT22;50063;52.084;5.414;2022-09-02T04:25:20;16.00;85.20
63897;DHT22;50063;52.084;5.414;2022-09-02T04:27:53;16.00;85.90
63897;DHT22;50063;52.084;5.414;2022-09-02T04:30:20;15.90;86.00
63897;DHT22;50063;52.084;5.414;2022-09-02T04:32:47;15.90;85.90
63897;DHT22;50063;52.084;5.414;2022-09-02T04:35:14;15.80;85.70
63897;DHT22;50063;52.084;5.414;2022-09-02T04:37:40;15.80;86.30
63897;DHT22;50063;52.084;5.414;2022-09-02T04:40:07;15.80;86.00
63897;DHT22;50063;52.084;5.414;2022-09-02T04:42:34;15.80;85.80
63897;DHT22;50063;52.084;5.414;2022-09-02T04:45:01;15.80;85.90
63897;DHT22;50063;52.084;5.414;2022-09-02T04:47:28;15.80;86.40
63897;DHT22;50063;52.084;5.414;2022-09-02T04:49:55;15.80;86.40
63897;DHT22;50063;52.084;5.414;2022-09-02T04:52:22;15.80;86.10
63897;DHT22;50063;52.084;5.414;2022-09-02T04:54:49;15.80;85.90
63897;DHT22;50063;52.084;5.414;2022-09-02T04:57:16;15.80;86.80
63897;DHT22;50063;52.084;5.414;2022-09-02T04:59:43;15.90;86.50
63897;DHT22;50063;52.084;5.414;2022-09-02T05:02:10;15.80;86.20
63897;DHT22;50063;52.084;5.414;2022-09-02T05:04:37;15.90;86.40
63897;DHT22;50063;52.084;5.414;2022-09-02T05:07:04;15.90;86.70
63897;DHT22;50063;52.084;5.414;2022-09-02T05:09:30;15.90;86.40
63897;DHT22;50063;52.084;5.414;2022-09-02T05:11:57;15.80;87.20
63897;DHT22;50063;52.084;5.414;2022-09-02T05:14:24;15.80;86.20
63897;DHT22;50063;52.084;5.414;2022-09-02T05:16:51;15.80;86.60
63897;DHT22;50063;52.084;5.414;2022-09-02T05:19:23;15.90;86.50
63897;DHT22;50063;52.084;5.414;2022-09-02T05:21:50;15.90;87.40
63897;DHT22;50063;52.084;5.414;2022-09-02T05:24:19;15.90;87.70
63897;DHT22;50063;52.084;5.414;2022-09-02T05:26:51;15.90;87.40
63897;DHT22;50063;52.084;5.414;2022-09-02T05:29:18;15.90;87.30
63897;DHT22;50063;52.084;5.414;2022-09-02T05:31:46;15.90;86.70
63897;DHT22;50063;52.084;5.414;2022-09-02T05:34:13;16.00;86.90
63897;DHT22;50063;52.084;5.414;2022-09-02T05:36:41;16.00;87.60
63897;DHT22;50063;52.084;5.414;2022-09-02T05:39:07;16.00;87.40
63897;DHT22;50063;52.084;5.414;2022-09-02T05:41:35;16.00;86.80
63897;DHT22;50063;52.084;5.414;2022-09-02T05:44:03;16.00;87.00
63897;DHT22;50063;52.084;5.414;2022-09-02T05:46:30;16.00;87.10
63897;DHT22;50063;52.084;5.414;2022-09-02T05:48:57;16.10;87.20
63897;DHT22;50063;52.084;5.414;2022-09-02T05:51:44;16.10;87.10
63897;DHT22;50063;52.084;5.414;2022-09-02T05:54:13;16.10;87.10
63897;DHT22;50063;52.084;5.414;2022-09-02T05:56:41;16.10;86.80
63897;DHT22;50063;52.084;5.414;2022-09-02T05:59:10;16.20;87.10
63897;DHT22;50063;52.084;5.414;2022-09-02T06:01:37;16.30;87.60
63897;DHT22;50063;52.084;5.414;2022-09-02T06:04:04;16.30;88.10
63897;DHT22;50063;52.084;5.414;2022-09-02T06:06:31;16.30;88.10
63897;DHT22;50063;52.084;5.414;2022-09-02T06:08:59;16.40;87.90
63897;DHT22;50063;52.084;5.414;2022-09-02T06:11:26;16.50;87.40
63897;DHT22;50063;52.084;5.414;2022-09-02T06:13:54;16.50;87.40
63897;DHT22;50063;52.084;5.414;2022-09-02T06:16:21;16.50;87.40
63897;DHT22;50063;52.084;5.414;2022-09-02T06:18:48;16.60;89.00
63897;DHT22;50063;52.084;5.414;2022-09-02T06:21:15;16.60;87.60
63897;DHT22;50063;52.084;5.414;2022-09-02T06:23:42;16.70;87.50
63897;DHT22;50063;52.084;5.414;2022-09-02T06:26:10;16.80;89.10
63897;DHT22;50063;52.084;5.414;2022-09-02T06:28:37;16.80;88.70
63897;DHT22;50063;52.084;5.414;2022-09-02T06:31:13;16.90;88.50
63897;DHT22;50063;52.084;5.414;2022-09-02T06:33:41;17.00;88.90
63897;DHT22;50063;52.084;5.414;2022-09-02T06:36:09;17.10;88.30
63897;DHT22;50063;52.084;5.414;2022-09-02T06:38:37;17.30;89.00
63897;DHT22;50063;52.084;5.414;2022-09-02T06:41:11;17.30;88.40
63897;DHT22;50063;52.084;5.414;2022-09-02T06:43:38;17.40;88.40
63897;DHT22;50063;52.084;5.414;2022-09-02T06:46:12;17.60;88.20
63897;DHT22;50063;52.084;5.414;2022-09-02T06:48:40;17.70;88.20
63897;DHT22;50063;52.084;5.414;2022-09-02T06:51:06;17.80;88.40
63897;DHT22;50063;52.084;5.414;2022-09-02T06:53:33;17.90;88.10
63897;DHT22;50063;52.084;5.414;2022-09-02T06:56:00;17.90;87.40
63897;DHT22;50063;52.084;5.414;2022-09-02T06:58:26;17.90;88.30
63897;DHT22;50063;52.084;5.414;2022-09-02T07:00:53;17.90;87.70
63897;DHT22;50063;52.084;5.414;2022-09-02T07:03:19;18.00;87.60
63897;DHT22;50063;52.084;5.414;2022-09-02T07:06:06;18.10;87.40
63897;DHT22;50063;52.084;5.414;2022-09-02T07:08:36;18.10;86.90
63897;DHT22;50063;52.084;5.414;2022-09-02T07:11:04;18.20;87.20
63897;DHT22;50063;52.084;5.414;2022-09-02T07:13:31;18.30;87.50
63897;DHT22;50063;52.084;5.414;2022-09-02T07:15:57;18.40;87.30
63897;DHT22;50063;52.084;5.414;2022-09-02T07:18:24;18.50;87.10
63897;DHT22;50063;52.084;5.414;2022-09-02T07:20:51;18.50;86.40
63897;DHT22;50063;52.084;5.414;2022-09-02T07:23:18;18.60;86.60
63897;DHT22;50063;52.084;5.414;2022-09-02T07:25:45;18.60;85.80
63897;DHT22;50063;52.084;5.414;2022-09-02T07:28:12;18.70;86.60
63897;DHT22;50063;52.084;5.414;2022-09-02T07:30:40;18.80;86.40
63897;DHT22;50063;52.084;5.414;2022-09-02T07:33:07;18.90;85.80
63897;DHT22;50063;52.084;5.414;2022-09-02T07:35:34;18.90;85.40
63897;DHT22;50063;52.084;5.414;2022-09-02T07:38:02;18.80;85.80
63897;DHT22;50063;52.084;5.414;2022-09-02T07:40:29;18.90;85.60
63897;DHT22;50063;52.084;5.414;2022-09-02T07:42:56;19.00;86.20
63897;DHT22;50063;52.084;5.414;2022-09-02T07:45:22;19.10;85.80
63897;DHT22;50063;52.084;5.414;2022-09-02T07:47:49;19.10;85.90
63897;DHT22;50063;52.084;5.414;2022-09-02T07:50:17;19.10;85.30
63897;DHT22;50063;52.084;5.414;2022-09-02T07:52:46;19.20;85.90
63897;DHT22;50063;52.084;5.414;2022-09-02T07:55:15;19.30;86.90
63897;DHT22;50063;52.084;5.414;2022-09-02T07:57:41;19.40;86.40
63897;DHT22;50063;52.084;5.414;2022-09-02T08:00:08;19.40;86.20
63897;DHT22;50063;52.084;5.414;2022-09-02T08:02:36;19.50;86.10
63897;DHT22;50063;52.084;5.414;2022-09-02T08:05:03;19.50;86.20
63897;DHT22;50063;52.084;5.414;2022-09-02T08:07:31;19.60;86.50
63897;DHT22;50063;52.084;5.414;2022-09-02T08:09:57;19.70;86.60
63897;DHT22;50063;52.084;5.414;2022-09-02T08:12:26;19.70;86.30
63897;DHT22;50063;52.084;5.414;2022-09-02T08:14:53;19.80;86.30
63897;DHT22;50063;52.084;5.414;2022-09-02T08:17:21;19.80;86.60
63897;DHT22;50063;52.084;5.414;2022-09-02T08:19:47;20.00;86.50
63897;DHT22;50063;52.084;5.414;2022-09-02T08:22:14;20.00;86.90
63897;DHT22;50063;52.084;5.414;2022-09-02T08:24:41;20.10;86.90
63897;DHT22;50063;52.084;5.414;2022-09-02T08:27:07;20.20;87.00
63897;DHT22;50063;52.084;5.414;2022-09-02T08:29:34;20.20;87.00
63897;DHT22;50063;52.084;5.414;2022-09-02T08:32:01;20.40;86.60
63897;DHT22;50063;52.084;5.414;2022-09-02T08:34:28;20.40;86.70
63897;DHT22;50063;52.084;5.414;2022-09-02T08:36:55;20.50;86.40
63897;DHT22;50063;52.084;5.414;2022-09-02T08:39:22;20.60;86.30
63897;DHT22;50063;52.084;5.414;2022-09-02T08:44:22;20.80;86.10
63897;DHT22;50063;52.084;5.414;2022-09-02T08:46:50;20.90;86.30
63897;DHT22;50063;52.084;5.414;2022-09-02T08:49:23;21.00;86.40
63897;DHT22;50063;52.084;5.414;2022-09-02T08:51:52;21.20;85.60
63897;DHT22;50063;52.084;5.414;2022-09-02T08:57:11;21.40;85.20
63897;DHT22;50063;52.084;5.414;2022-09-02T08:59:38;21.40;85.00
63897;DHT22;50063;52.084;5.414;2022-09-02T09:02:15;21.40;84.40
63897;DHT22;50063;52.084;5.414;2022-09-02T09:15:39;21.70;84.60
63897;DHT22;50063;52.084;5.414;2022-09-02T09:18:11;21.90;85.10
63897;DHT22;50063;52.084;5.414;2022-09-02T09:20:40;22.00;85.20
63897;DHT22;50063;52.084;5.414;2022-09-02T09:23:14;22.10;85.10
63897;DHT22;50063;52.084;5.414;2022-09-02T09:25:47;22.20;85.00
63897;DHT22;50063;52.084;5.414;2022-09-02T09:28:15;22.20;84.00
63897;DHT22;50063;52.084;5.414;2022-09-02T09:30:41;22.20;83.70
63897;DHT22;50063;52.084;5.414;2022-09-02T09:33:08;22.30;85.10
63897;DHT22;50063;52.084;5.414;2022-09-02T09:35:50;22.30;83.90
63897;DHT22;50063;52.084;5.414;2022-09-02T09:38:27;22.40;84.10
63897;DHT22;50063;52.084;5.414;2022-09-02T09:43:55;22.60;85.00
63897;DHT22;50063;52.084;5.414;2022-09-02T09:46:29;22.70;84.00
63897;DHT22;50063;52.084;5.414;2022-09-02T09:48:59;22.80;84.10
63897;DHT22;50063;52.084;5.414;2022-09-02T09:51:26;22.90;83.80
63897;DHT22;50063;52.084;5.414;2022-09-02T09:53:52;22.90;84.50
63897;DHT22;50063;52.084;5.414;2022-09-02T09:56:38;23.00;84.60
63897;DHT22;50063;52.084;5.414;2022-09-02T09:59:06;23.20;84.60
63897;DHT22;50063;52.084;5.414;2022-09-02T10:01:33;23.30;84.20
63897;DHT22;50063;52.084;5.414;2022-09-02T10:06:46;23.50;83.70
63897;DHT22;50063;52.084;5.414;2022-09-02T10:11:54;23.60;83.20
63897;DHT22;50063;52.084;5.414;2022-09-02T10:14:20;23.70;84.30
63897;DHT22;50063;52.084;5.414;2022-09-02T10:16:56;23.80;83.70
63897;DHT22;50063;52.084;5.414;2022-09-02T10:26:57;24.10;82.40
63897;DHT22;50063;52.084;5.414;2022-09-02T10:37:09;24.40;81.60
63897;DHT22;50063;52.084;5.414;2022-09-02T10:45:02;24.50;81.30
63897;DHT22;50063;52.084;5.414;2022-09-02T10:47:36;24.50;82.50
63897;DHT22;50063;52.084;5.414;2022-09-02T10:57:39;24.70;81.10
63897;DHT22;50063;52.084;5.414;2022-09-02T11:00:14;24.60;81.30
63897;DHT22;50063;52.084;5.414;2022-09-02T11:02:55;24.60;82.10
63897;DHT22;50063;52.084;5.414;2022-09-02T11:05:28;24.70;82.50
63897;DHT22;50063;52.084;5.414;2022-09-02T11:08:05;24.60;80.40
63897;DHT22;50063;52.084;5.414;2022-09-02T11:10:42;24.60;81.00
63897;DHT22;50063;52.084;5.414;2022-09-02T11:16:01;24.70;81.90
63897;DHT22;50063;52.084;5.414;2022-09-02T11:18:36;24.70;81.30
63897;DHT22;50063;52.084;5.414;2022-09-02T11:26:37;24.80;81.50
63897;DHT22;50063;52.084;5.414;2022-09-02T11:29:09;24.80;80.50
63897;DHT22;50063;52.084;5.414;2022-09-02T11:31:42;24.90;81.30
63897;DHT22;50063;52.084;5.414;2022-09-02T11:36:37;25.00;80.40
63897;DHT22;50063;52.084;5.414;2022-09-02T11:39:08;25.00;80.00
63897;DHT22;50063;52.084;5.414;2022-09-02T11:52:37;25.10;79.60
63897;DHT22;50063;52.084;5.414;2022-09-02T11:57:34;25.20;77.40
63897;DHT22;50063;52.084;5.414;2022-09-02T12:00:03;25.20;74.80
63897;DHT22;50063;52.084;5.414;2022-09-02T12:07:52;25.20;74.60
63897;DHT22;50063;52.084;5.414;2022-09-02T12:13:05;25.30;74.70
63897;DHT22;50063;52.084;5.414;2022-09-02T12:15:35;25.40;75.60
63897;DHT22;50063;52.084;5.414;2022-09-02T12:23:10;25.40;73.50
63897;DHT22;50063;52.084;5.414;2022-09-02T12:25:59;25.50;73.90
63897;DHT22;50063;52.084;5.414;2022-09-02T12:28:27;25.50;74.60
63897;DHT22;50063;52.084;5.414;2022-09-02T12:33:40;25.50;74.90
63897;DHT22;50063;52.084;5.414;2022-09-02T12:36:43;25.40;75.60
63897;DHT22;50063;52.084;5.414;2022-09-02T12:39:05;25.50;72.90
63897;DHT22;50063;52.084;5.414;2022-09-02T12:41:42;25.30;73.20
63897;DHT22;50063;52.084;5.414;2022-09-02T12:44:15;25.40;73.90
63897;DHT22;50063;52.084;5.414;2022-09-02T12:49:42;25.30;73.50
63897;DHT22;50063;52.084;5.414;2022-09-02T12:52:12;25.30;72.70
63897;DHT22;50063;52.084;5.414;2022-09-02T12:54:57;25.20;71.50
63897;DHT22;50063;52.084;5.414;2022-09-02T12:57:38;25.20;73.90
63897;DHT22;50063;52.084;5.414;2022-09-02T13:00:05;25.20;73.60
63897;DHT22;50063;52.084;5.414;2022-09-02T13:02:38;25.20;73.50
63897;DHT22;50063;52.084;5.414;2022-09-02T13:10:55;25.50;74.70
63897;DHT22;50063;52.084;5.414;2022-09-02T13:34:41;25.90;73.30
63897;DHT22;50063;52.084;5.414;2022-09-02T13:37:25;25.90;73.30
63897;DHT22;50063;52.084;5.414;2022-09-02T13:39:52;26.20;72.30
63897;DHT22;50063;52.084;5.414;2022-09-02T13:42:19;26.30;73.10
63897;DHT22;50063;52.084;5.414;2022-09-02T13:44:48;26.40;72.50
63897;DHT22;50063;52.084;5.414;2022-09-02T13:47:16;27.10;72.70
63897;DHT22;50063;52.084;5.414;2022-09-02T13:49:46;27.30;73.00
63897;DHT22;50063;52.084;5.414;2022-09-02T13:52:15;28.30;73.50
63897;DHT22;50063;52.084;5.414;2022-09-02T13:54:43;28.50;71.10
63897;DHT22;50063;52.084;5.414;2022-09-02T13:57:11;29.00;70.70
63897;DHT22;50063;52.084;5.414;2022-09-02T13:59:41;29.40;71.50
63897;DHT22;50063;52.084;5.414;2022-09-02T14:04:42;29.80;70.90
63897;DHT22;50063;52.084;5.414;2022-09-02T14:07:09;30.10;68.60
63897;DHT22;50063;52.084;5.414;2022-09-02T14:09:36;30.80;69.50
63897;DHT22;50063;52.084;5.414;2022-09-02T14:12:04;31.30;68.40
63897;DHT22;50063;52.084;5.414;2022-09-02T14:14:32;31.50;70.50
63897;DHT22;50063;52.084;5.414;2022-09-02T14:17:19;32.40;70.40
63897;DHT22;50063;52.084;5.414;2022-09-02T14:19:46;32.80;69.20
63897;DHT22;50063;52.084;5.414;2022-09-02T14:22:18;33.10;66.30
63897;DHT22;50063;52.084;5.414;2022-09-02T14:24:46;33.10;64.20
63897;DHT22;50063;52.084;5.414;2022-09-02T14:27:17;33.40;64.70
63897;DHT22;50063;52.084;5.414;2022-09-02T14:29:45;33.80;65.80
63897;DHT22;50063;52.084;5.414;2022-09-02T14:32:13;33.80;63.70
63897;DHT22;50063;52.084;5.414;2022-09-02T14:34:43;33.40;64.00
63897;DHT22;50063;52.084;5.414;2022-09-02T14:37:23;34.20;65.90
63897;DHT22;50063;52.084;5.414;2022-09-02T14:40:12;34.40;63.20
63897;DHT22;50063;52.084;5.414;2022-09-02T14:42:48;34.40;61.90
63897;DHT22;50063;52.084;5.414;2022-09-02T14:45:23;34.30;62.30
63897;DHT22;50063;52.084;5.414;2022-09-02T14:47:50;35.00;64.10
63897;DHT22;50063;52.084;5.414;2022-09-02T14:50:17;35.00;60.20
63897;DHT22;50063;52.084;5.414;2022-09-02T14:52:46;33.60;58.50
63897;DHT22;50063;52.084;5.414;2022-09-02T14:58:00;32.90;63.50
63897;DHT22;50063;52.084;5.414;2022-09-02T15:00:26;32.40;60.80
63897;DHT22;50063;52.084;5.414;2022-09-02T15:02:59;32.20;62.50
63897;DHT22;50063;52.084;5.414;2022-09-02T15:05:27;32.00;63.70
63897;DHT22;50063;52.084;5.414;2022-09-02T15:07:53;33.00;62.70
63897;DHT22;50063;52.084;5.414;2022-09-02T15:10:20;33.70;63.60
63897;DHT22;50063;52.084;5.414;2022-09-02T15:12:48;34.10;61.60
63897;DHT22;50063;52.084;5.414;2022-09-02T15:15:15;34.30;61.90
63897;DHT22;50063;52.084;5.414;2022-09-02T15:17:42;34.00;59.30
63897;DHT22;50063;52.084;5.414;2022-09-02T15:20:09;34.50;60.60
63897;DHT22;50063;52.084;5.414;2022-09-02T15:22:36;34.30;58.90
63897;DHT22;50063;52.084;5.414;2022-09-02T15:25:04;34.40;59.50
63897;DHT22;50063;52.084;5.414;2022-09-02T15:27:33;33.30;57.50
63897;DHT22;50063;52.084;5.414;2022-09-02T15:30:00;32.70;60.40
63897;DHT22;50063;52.084;5.414;2022-09-02T15:32:26;33.90;60.00
63897;DHT22;50063;52.084;5.414;2022-09-02T15:34:53;33.90;59.00
63897;DHT22;50063;52.084;5.414;2022-09-02T15:37:20;32.40;58.10
63897;DHT22;50063;52.084;5.414;2022-09-02T15:39:47;31.50;61.10
63897;DHT22;50063;52.084;5.414;2022-09-02T15:42:14;31.00;60.90
63897;DHT22;50063;52.084;5.414;2022-09-02T15:44:40;30.30;60.50
63897;DHT22;50063;52.084;5.414;2022-09-02T15:47:07;30.00;63.60
63897;DHT22;50063;52.084;5.414;2022-09-02T15:49:33;29.80;62.30
63897;DHT22;50063;52.084;5.414;2022-09-02T15:52:00;29.70;63.40
63897;DHT22;50063;52.084;5.414;2022-09-02T15:54:28;29.50;63.30
63897;DHT22;50063;52.084;5.414;2022-09-02T15:56:57;29.40;64.30
63897;DHT22;50063;52.084;5.414;2022-09-02T15:59:24;29.30;63.80
63897;DHT22;50063;52.084;5.414;2022-09-02T16:01:52;29.00;63.70
63897;DHT22;50063;52.084;5.414;2022-09-02T16:04:22;28.80;64.80
63897;DHT22;50063;52.084;5.414;2022-09-02T16:06:49;28.60;63.80
63897;DHT22;50063;52.084;5.414;2022-09-02T16:09:17;28.30;64.10
63897;DHT22;50063;52.084;5.414;2022-09-02T16:11:48;28.10;64.10
63897;DHT22;50063;52.084;5.414;2022-09-02T16:14:15;28.00;64.10
63897;DHT22;50063;52.084;5.414;2022-09-02T16:16:46;27.90;64.90
63897;DHT22;50063;52.084;5.414;2022-09-02T16:19:14;27.80;65.40
63897;DHT22;50063;52.084;5.414;2022-09-02T16:21:41;27.70;64.60
63897;DHT22;50063;52.084;5.414;2022-09-02T16:24:08;27.60;64.50
63897;DHT22;50063;52.084;5.414;2022-09-02T16:26:38;27.60;64.60
63897;DHT22;50063;52.084;5.414;2022-09-02T16:29:10;27.60;65.00
63897;DHT22;50063;52.084;5.414;2022-09-02T16:31:41;27.70;64.00
63897;DHT22;50063;52.084;5.414;2022-09-02T16:34:08;27.40;64.70
63897;DHT22;50063;52.084;5.414;2022-09-02T16:36:36;27.80;63.60
63897;DHT22;50063;52.084;5.414;2022-09-02T16:39:03;29.10;63.50
63897;DHT22;50063;52.084;5.414;2022-09-02T16:41:31;29.70;62.70
63897;DHT22;50063;52.084;5.414;2022-09-02T16:44:07;28.90;62.40
63897;DHT22;50063;52.084;5.414;2022-09-02T16:46:34;29.30;62.90
63897;DHT22;50063;52.084;5.414;2022-09-02T16:49:01;29.40;62.50
63897;DHT22;50063;52.084;5.414;2022-09-02T16:51:28;30.10;62.20
63897;DHT22;50063;52.084;5.414;2022-09-02T16:53:59;30.60;61.40
63897;DHT22;50063;52.084;5.414;2022-09-02T16:56:26;30.60;60.50
63897;DHT22;50063;52.084;5.414;2022-09-02T16:58:53;30.50;62.00
63897;DHT22;50063;52.084;5.414;2022-09-02T17:01:20;30.30;60.90
63897;DHT22;50063;52.084;5.414;2022-09-02T17:03:48;29.40;61.20
63897;DHT22;50063;52.084;5.414;2022-09-02T17:06:16;29.00;63.20
63897;DHT22;50063;52.084;5.414;2022-09-02T17:08:43;28.80;63.00
63897;DHT22;50063;52.084;5.414;2022-09-02T17:11:26;28.60;63.50
63897;DHT22;50063;52.084;5.414;2022-09-02T17:13:57;28.40;63.00
63897;DHT22;50063;52.084;5.414;2022-09-02T17:16:25;28.10;62.70
63897;DHT22;50063;52.084;5.414;2022-09-02T17:18:52;27.80;62.90
63897;DHT22;50063;52.084;5.414;2022-09-02T17:23:49;27.40;62.90
63897;DHT22;50063;52.084;5.414;2022-09-02T17:26:16;27.30;63.70
63897;DHT22;50063;52.084;5.414;2022-09-02T17:28:43;27.20;64.60
63897;DHT22;50063;52.084;5.414;2022-09-02T17:31:20;27.10;64.80
63897;DHT22;50063;52.084;5.414;2022-09-02T17:33:47;27.10;65.50
63897;DHT22;50063;52.084;5.414;2022-09-02T17:36:14;27.00;65.40
63897;DHT22;50063;52.084;5.414;2022-09-02T17:38:42;26.80;64.60
63897;DHT22;50063;52.084;5.414;2022-09-02T17:41:08;26.70;64.90
63897;DHT22;50063;52.084;5.414;2022-09-02T17:43:54;26.60;65.10
63897;DHT22;50063;52.084;5.414;2022-09-02T17:46:21;26.50;65.40
63897;DHT22;50063;52.084;5.414;2022-09-02T17:48:48;26.30;65.50
63897;DHT22;50063;52.084;5.414;2022-09-02T17:51:34;26.20;65.40